Time;durP1;ratioP1;P1;durP2;ratioP2;P2;SDS_P1;SDS_P2;PMS_P1;PMS_P2;Temp;Humidity;BMP_temperature;BMP_pressure;BME280_temperature;BME280_humidity;BME280_pressure;Samples;Min_cycle;Max_cycle;Signal;HPM_P1;HPM_P2
2021/08/17 00:01:02;;;;;;;8.85;2.67;;;;;;;14.15;67.73;101903.91;5007647;28;20034;-85
2021/08/17 00:03:28;;;;;;;9.30;2.35;;;;;;;14.18;67.36;101897.78;5001372;28;20022;-83
2021/08/17 00:06:33;;;;;;;7.70;2.25;;;;;;;14.14;68.10;101903.91;5010820;28;20029;-83
2021/08/17 00:09:02;;;;;;;12.27;2.40;;;;;;;14.14;67.81;101901.25;5013304;28;20105;-82
2021/08/17 00:11:27;;;;;;;13.75;3.08;;;;;;;14.08;69.00;101907.31;5000010;28;20430;-81
2021/08/17 00:13:54;;;;;;;10.27;2.70;;;;;;;14.08;68.09;101904.69;5007719;28;20052;-80
2021/08/17 00:16:23;;;;;;;12.30;2.47;;;;;;;14.07;68.18;101905.53;5012799;28;20479;-86
2021/08/17 00:18:48;;;;;;;10.80;2.25;;;;;;;14.05;68.20;101909.88;5013133;28;20037;-86
2021/08/17 00:21:15;;;;;;;11.48;2.53;;;;;;;14.06;68.03;101898.44;5004761;28;20399;-83
2021/08/17 00:23:43;;;;;;;9.68;2.38;;;;;;;14.08;67.72;101909.97;5020568;28;20034;-85
2021/08/17 00:26:28;;;;;;;10.85;2.38;;;;;;;14.09;67.96;101903.78;5005782;28;20106;-88
2021/08/17 00:29:13;;;;;;;8.60;2.38;;;;;;;14.05;68.34;101901.06;5002809;28;20373;-86
2021/08/17 00:31:42;;;;;;;5.60;2.22;;;;;;;14.08;68.49;101902.03;5011923;28;20034;-84
2021/08/17 00:34:11;;;;;;;4.50;2.30;;;;;;;14.10;69.01;101894.13;5022945;28;20049;-87
2021/08/17 00:37:19;;;;;;;10.13;2.42;;;;;;;14.07;69.13;101900.25;5023434;28;20049;-85
2021/08/17 00:40:24;;;;;;;8.70;2.20;;;;;;;14.05;68.72;101885.19;5002696;28;20061;-89
2021/08/17 00:42:49;;;;;;;7.32;2.10;;;;;;;14.05;68.92;101886.06;5013272;28;20030;-82
2021/08/17 00:45:43;;;;;;;7.15;2.17;;;;;;;14.05;69.51;101882.53;4998318;28;20037;-88
2021/08/17 00:48:33;;;;;;;9.45;2.63;;;;;;;14.03;69.74;101886.94;4995757;28;20038;-82
2021/08/17 00:51:50;;;;;;;11.32;2.35;;;;;;;14.03;69.61;101881.63;5009849;28;20034;-82
2021/08/17 00:54:18;;;;;;;7.47;2.45;;;;;;;13.98;70.33;101884.19;5022372;28;20479;-86
2021/08/17 00:57:02;;;;;;;10.23;2.45;;;;;;;13.94;71.19;101885.84;5017788;28;20029;-84
2021/08/17 01:00:16;;;;;;;11.48;2.30;;;;;;;13.96;71.05;101877.97;5004263;28;20083;-83
2021/08/17 01:03:27;;;;;;;10.00;2.23;;;;;;;13.98;71.66;101881.53;4998797;28;20102;-88
2021/08/17 01:06:42;;;;;;;;;;;;;;;;;;;;;
2021/08/17 01:09:57;;;;;;;10.20;2.60;;;;;;;14.15;71.13;101880.09;5014980;28;20030;-85
2021/08/17 01:12:34;;;;;;;8.80;2.35;;;;;;;14.22;71.17;101888.16;5012453;28;20052;-81
2021/08/17 01:15:58;;;;;;;;;;;;;;;;;;;;;
2021/08/17 01:18:23;;;;;;;6.78;2.20;;;;;;;14.37;70.67;101883.13;5023398;28;20046;-86
2021/08/17 01:21:43;;;;;;;9.25;2.42;;;;;;;14.45;70.58;101885.94;5011423;28;20083;-86
2021/08/17 01:24:09;;;;;;;9.90;2.38;;;;;;;14.49;70.88;101891.28;4998261;28;20068;-84
2021/08/17 01:27:14;;;;;;;7.07;2.00;;;;;;;14.55;70.70;101893.13;5013370;28;20053;-81
2021/08/17 01:29:51;;;;;;;7.57;2.35;;;;;;;14.60;70.75;101893.25;5010575;28;20076;-85
2021/08/17 01:32:18;;;;;;;4.35;2.22;;;;;;;14.62;70.96;101891.50;5000299;28;20029;-81
2021/08/17 01:35:31;;;;;;;10.60;2.25;;;;;;;14.68;70.29;101902.25;5018412;28;20030;-86
2021/08/17 01:38:16;;;;;;;7.65;2.40;;;;;;;14.75;70.17;101906.75;5002511;28;20116;-82
2021/08/17 01:40:49;;;;;;;5.88;2.20;;;;;;;14.82;70.32;101907.75;5009850;28;20033;-83
2021/08/17 01:43:34;;;;;;;12.03;2.90;;;;;;;14.88;69.58;101902.56;5005004;28;20107;-85
2021/08/17 01:46:31;;;;;;;6.85;2.67;;;;;;;14.92;69.88;101906.13;5000583;28;20146;-85
2021/08/17 01:49:05;;;;;;;9.55;2.05;;;;;;;14.96;70.27;101910.63;5015586;28;20052;-81
2021/08/17 01:51:50;;;;;;;7.05;2.72;;;;;;;15.02;70.19;101905.41;4999636;28;20109;-83
2021/08/17 01:55:08;;;;;;;;;;;;;;;;;;;;;
2021/08/17 01:58:23;;;;;;;8.82;2.75;;;;;;;15.11;70.62;101896.69;4996471;28;20137;-84
2021/08/17 02:00:49;;;;;;;8.52;2.58;;;;;;;15.10;71.03;101890.53;5002186;28;20030;-85
2021/08/17 02:03:40;;;;;;;8.10;2.50;;;;;;;15.10;71.29;101903.78;5012708;28;20030;-86
2021/08/17 02:06:09;;;;;;;8.10;2.63;;;;;;;15.10;71.21;101897.59;5005862;28;20037;-81
2021/08/17 02:09:04;;;;;;;6.18;2.15;;;;;;;15.11;71.39;101900.25;5001458;28;20118;-83
2021/08/17 02:11:32;;;;;;;7.38;2.25;;;;;;;15.10;71.30;101898.47;5003067;28;20438;-84
2021/08/17 02:14:18;;;;;;;7.43;2.47;;;;;;;15.16;71.67;101900.31;4996490;28;20557;-82
2021/08/17 02:17:06;;;;;;;8.00;2.42;;;;;;;15.20;71.18;101895.97;5011666;28;20047;-82
2021/08/17 02:19:40;;;;;;;6.47;2.20;;;;;;;15.18;71.38;101902.13;5012998;28;20114;-82
2021/08/17 02:22:46;;;;;;;6.60;2.55;;;;;;;15.19;71.43;101900.34;5012367;28;20041;-87
2021/08/17 02:25:34;;;;;;;7.75;2.70;;;;;;;15.16;71.72;101890.59;4993529;28;20073;-82
2021/08/17 02:28:26;;;;;;;6.45;2.63;;;;;;;15.16;71.49;101892.38;5011236;28;20036;-86
2021/08/17 02:31:25;;;;;;;10.40;3.15;;;;;;;15.16;71.54;101895.91;4975886;28;20035;-85
2021/08/17 02:33:53;;;;;;;9.32;2.67;;;;;;;15.17;71.34;101892.38;5004116;28;20470;-86
2021/08/17 02:36:36;;;;;;;8.27;2.80;;;;;;;15.15;71.89;101895.88;5005304;28;20034;-87
2021/08/17 02:39:21;;;;;;;6.53;3.08;;;;;;;15.09;72.21;101891.38;4984084;28;20119;-87
2021/08/17 02:41:47;;;;;;;10.52;3.38;;;;;;;15.04;72.38;101889.53;4989124;28;20034;-87
2021/08/17 02:45:05;;;;;;;6.65;3.25;;;;;;;14.97;73.04;101892.09;5005634;28;20082;-82
2021/08/17 02:48:10;;;;;;;8.65;3.42;;;;;;;14.92;73.59;101901.75;5030206;28;20045;-81
2021/08/17 02:51:15;;;;;;;9.18;3.65;;;;;;;14.84;74.23;101901.63;4994701;28;20408;-81
2021/08/17 02:54:00;;;;;;;9.13;3.33;;;;;;;14.78;75.01;101890.91;4996693;28;20026;-85
2021/08/17 02:56:36;;;;;;;9.80;4.03;;;;;;;14.71;75.58;101885.50;5006682;28;20034;-79
2021/08/17 02:59:01;;;;;;;9.07;3.90;;;;;;;14.67;76.46;101892.50;5000864;28;20037;-79
2021/08/17 03:01:26;;;;;;;10.88;4.45;;;;;;;14.64;76.61;101887.16;5014961;28;20402;-88
2021/08/17 03:03:52;;;;;;;8.93;3.90;;;;;;;14.62;76.88;101894.13;5027485;28;20014;-80
2021/08/17 03:06:36;;;;;;;;;;;;;;;;;;;;;
2021/08/17 03:09:25;;;;;;;14.40;4.93;;;;;;;14.50;78.23;101885.13;5027512;28;20555;-84
2021/08/17 03:11:53;;;;;;;10.38;4.82;;;;;;;14.47;78.87;101897.41;5012050;28;20414;-82
2021/08/17 03:14:39;;;;;;;14.27;5.85;;;;;;;14.37;79.47;101896.38;5012337;28;20022;-83
2021/08/17 03:17:30;;;;;;;9.07;4.53;;;;;;;14.27;79.87;101897.06;5019163;28;20458;-84
2021/08/17 03:20:37;;;;;;;8.65;4.40;;;;;;;14.11;80.74;101883.56;5017819;28;20025;-87
2021/08/17 03:23:27;;;;;;;13.20;5.15;;;;;;;13.94;81.74;101892.91;5002741;28;20054;-84
2021/08/17 03:26:03;;;;;;;17.27;4.95;;;;;;;13.82;82.49;101894.47;4993513;28;20053;-83
2021/08/17 03:28:39;;;;;;;;;;;;;;;;;;;;;
2021/08/17 03:31:24;;;;;;;15.23;5.03;;;;;;;13.68;83.71;101885.34;5031333;28;20128;-83
2021/08/17 03:34:16;;;;;;;14.95;5.25;;;;;;;13.59;84.05;101875.50;4997446;28;20042;-83
2021/08/17 03:36:51;;;;;;;18.20;5.68;;;;;;;13.47;84.82;101873.47;5009951;28;20034;-86
2021/08/17 03:39:46;;;;;;;;;;;;;;;;;;;;;
2021/08/17 03:42:32;;;;;;;14.48;5.80;;;;;;;13.24;85.66;101872.03;4999352;28;20184;-84
2021/08/17 03:45:37;;;;;;;14.82;6.43;;;;;;;13.18;86.19;101867.50;5028977;28;20109;-83
2021/08/17 03:48:25;;;;;;;16.92;6.43;;;;;;;13.13;86.90;101867.41;5021241;28;20026;-83
2021/08/17 03:51:15;;;;;;;21.55;7.05;;;;;;;13.13;87.31;101867.41;5005583;28;20038;-81
2021/08/17 03:53:44;;;;;;;26.48;12.15;;;;;;;13.10;87.70;101875.28;5011366;28;20034;-80
2021/08/17 03:56:15;;;;;;;15.40;7.90;;;;;;;13.10;87.70;101871.72;4990726;28;20031;-84
2021/08/17 03:59:10;;;;;;;18.20;7.70;;;;;;;13.09;88.05;101876.13;5005281;28;20113;-86
2021/08/17 04:01:56;;;;;;;18.30;7.32;;;;;;;13.13;88.19;101875.34;5008326;28;20117;-81
2021/08/17 04:04:57;;;;;;;;;;;;;;;;;;;;;
2021/08/17 04:07:46;;;;;;;18.00;6.88;;;;;;;13.16;88.38;101885.09;5000896;28;20041;-85
2021/08/17 04:10:52;;;;;;;14.63;7.32;;;;;;;13.16;88.77;101885.97;5030389;28;20026;-86
2021/08/17 04:13:40;;;;;;;16.52;7.40;;;;;;;13.18;88.97;101887.78;5007163;28;20053;-84
2021/08/17 04:16:08;;;;;;;17.88;7.50;;;;;;;13.21;89.46;101882.53;5016059;28;20030;-82
2021/08/17 04:18:56;;;;;;;18.65;7.57;;;;;;;13.28;89.15;101892.38;5016406;28;20058;-86
2021/08/17 04:21:41;;;;;;;15.48;7.45;;;;;;;13.35;89.15;101883.75;5016335;28;20038;-85
2021/08/17 04:24:46;;;;;;;19.27;7.60;;;;;;;13.37;89.31;101883.81;5013910;28;20041;-80
2021/08/17 04:27:18;;;;;;;22.50;7.57;;;;;;;13.36;89.21;101882.94;4997525;28;20097;-86
2021/08/17 04:29:46;;;;;;;20.13;8.25;;;;;;;13.41;89.40;101883.91;5016064;28;20034;-87
2021/08/17 04:32:51;;;;;;;19.55;8.13;;;;;;;13.43;89.63;101874.28;5002789;28;20025;-86
2021/08/17 04:35:37;;;;;;;15.23;6.75;;;;;;;13.47;89.59;101886.69;5030507;28;20038;-82
2021/08/17 04:38:30;;;;;;;20.73;7.68;;;;;;;13.53;89.43;101879.75;5013034;28;20479;-84
2021/08/17 04:41:15;;;;;;;15.80;7.95;;;;;;;13.57;89.24;101876.31;5007819;28;20081;-84
2021/08/17 04:43:41;;;;;;;20.17;8.10;;;;;;;13.59;89.68;101879.88;5016870;28;20038;-84
2021/08/17 04:46:08;;;;;;;19.98;7.95;;;;;;;13.62;89.34;101880.84;4997079;28;20033;-82
2021/08/17 04:48:54;;;;;;;21.42;8.27;;;;;;;13.71;89.28;101872.19;5013526;28;20114;-81
2021/08/17 04:51:19;;;;;;;26.40;8.70;;;;;;;13.80;89.17;101872.38;4999592;28;20500;-84
2021/08/17 04:54:25;;;;;;;23.25;9.65;;;;;;;13.88;89.08;101866.34;5014142;28;20037;-79
2021/08/17 04:57:17;;;;;;;26.30;8.77;;;;;;;13.97;88.72;101869.16;5013424;28;20044;-86
2021/08/17 05:00:07;;;;;;;23.55;8.68;;;;;;;14.03;88.41;101869.28;5013177;28;20050;-86
2021/08/17 05:02:33;;;;;;;22.58;8.63;;;;;;;14.05;88.29;101864.91;5014381;28;20055;-84
2021/08/17 05:04:59;;;;;;;18.50;8.10;;;;;;;14.04;88.22;101868.44;4996609;28;20034;-82
2021/08/17 05:07:24;;;;;;;21.52;8.32;;;;;;;14.03;88.55;101879.88;5008697;28;20082;-82
2021/08/17 05:10:13;;;;;;;19.15;8.05;;;;;;;14.00;88.38;101875.41;5012426;28;20026;-86
2021/08/17 05:12:38;;;;;;;26.55;9.43;;;;;;;14.02;88.27;101872.78;5007000;28;20026;-80
2021/08/17 05:15:24;;;;;;;23.42;8.15;;;;;;;14.05;88.31;101878.13;5006477;28;20038;-86
2021/08/17 05:17:49;;;;;;;22.23;8.25;;;;;;;14.10;88.43;101873.81;5010363;28;20125;-84
2021/08/17 05:20:17;;;;;;;27.15;11.02;;;;;;;14.13;88.59;101868.59;5012698;28;20088;-83
2021/08/17 05:23:02;;;;;;;21.98;9.15;;;;;;;14.25;88.39;101872.31;4996475;28;20061;-83
2021/08/17 05:25:28;;;;;;;21.90;9.10;;;;;;;14.38;88.10;101868.13;5013768;28;20038;-85
2021/08/17 05:27:54;;;;;;;25.23;9.48;;;;;;;14.50;87.57;101861.28;5007732;28;20102;-83
2021/08/17 05:30:39;;;;;;;27.60;8.90;;;;;;;14.68;86.80;101851.91;5006790;28;20037;-81
2021/08/17 05:33:04;;;;;;;30.65;9.63;;;;;;;14.78;86.58;101851.16;5011064;28;20085;-83
2021/08/17 05:35:30;;;;;;;26.13;10.55;;;;;;;14.84;86.28;101845.97;5003029;28;20050;-81
2021/08/17 05:37:55;;;;;;;23.48;9.65;;;;;;;14.90;85.82;101849.59;5011401;28;20056;-84
2021/08/17 05:40:21;;;;;;;29.55;10.35;;;;;;;14.96;85.66;101850.56;5002550;28;20022;-79
2021/08/17 05:42:46;;;;;;;24.40;10.45;;;;;;;15.04;85.64;101849.78;5010759;28;20052;-81
2021/08/17 05:46:02;;;;;;;22.05;9.40;;;;;;;15.08;85.99;101848.94;4998097;28;20369;-85
2021/08/17 05:48:55;;;;;;;26.23;9.73;;;;;;;15.15;85.64;101845.50;5005120;28;20038;-83
2021/08/17 05:51:20;;;;;;;24.13;9.07;;;;;;;15.23;85.30;101842.97;4998142;28;20045;-83
2021/08/17 05:53:46;;;;;;;17.42;8.52;;;;;;;15.28;85.20;101841.28;5004470;28;20091;-84
2021/08/17 05:56:11;;;;;;;21.50;8.98;;;;;;;15.33;85.44;101844.88;4976474;28;20496;-81
2021/08/17 05:58:37;;;;;;;27.27;9.05;;;;;;;15.42;84.88;101842.31;5001580;28;20033;-81
2021/08/17 06:01:22;;;;;;;23.35;10.07;;;;;;;15.51;84.39;101847.75;4998502;28;20552;-79
2021/08/17 06:03:48;;;;;;;16.73;8.68;;;;;;;15.58;83.96;101859.31;4990028;28;20479;-86
2021/08/17 06:06:13;;;;;;;22.17;8.98;;;;;;;15.65;83.68;101854.97;4998769;28;20065;-80
2021/08/17 06:08:39;;;;;;;19.17;8.60;;;;;;;15.69;83.64;101854.16;5001325;28;20025;-84
2021/08/17 06:11:04;;;;;;;23.58;9.20;;;;;;;15.72;83.73;101850.63;4993998;28;20117;-86
2021/08/17 06:13:30;;;;;;;25.02;9.23;;;;;;;15.75;84.32;101851.56;5002211;28;20384;-81
2021/08/17 06:16:15;;;;;;;18.05;8.57;;;;;;;15.79;84.58;101850.75;4989935;28;20033;-84
2021/08/17 06:18:44;;;;;;;18.65;8.10;;;;;;;15.83;83.53;101844.63;5009051;28;20055;-85
2021/08/17 06:21:31;;;;;;;18.58;8.27;;;;;;;15.87;82.90;101849.94;4998957;28;20046;-84
2021/08/17 06:23:57;;;;;;;21.38;7.47;;;;;;;15.94;82.24;101854.44;5000496;28;20065;-82
2021/08/17 06:26:25;;;;;;;18.10;7.13;;;;;;;15.96;81.32;101863.31;4998832;28;20050;-82
2021/08/17 06:28:50;;;;;;;20.83;6.88;;;;;;;16.03;81.35;101867.81;5004612;28;20055;-80
2021/08/17 06:31:36;;;;;;;22.08;7.82;;;;;;;16.15;81.35;101867.06;5009032;28;20025;-84
2021/08/17 06:34:21;;;;;;;17.95;6.63;;;;;;;16.33;80.51;101871.66;4995277;28;20049;-85
2021/08/17 06:37:06;;;;;;;16.27;6.25;;;;;;;16.52;79.96;101878.00;5000838;28;20025;-86
2021/08/17 06:39:39;;;;;;;15.50;6.88;;;;;;;16.70;78.48;101869.31;4998058;28;20041;-82
2021/08/17 06:42:05;;;;;;;13.10;6.60;;;;;;;16.93;77.82;101863.28;4997446;28;20507;-83
2021/08/17 06:44:31;;;;;;;21.00;6.28;;;;;;;17.24;75.86;101850.19;4992992;28;20110;-80
2021/08/17 06:46:57;;;;;;;11.38;5.95;;;;;;;17.29;75.86;101845.78;4994832;28;20472;-81
2021/08/17 06:49:42;;;;;;;17.27;6.82;;;;;;;17.18;76.02;101848.38;5011011;28;20053;-81
2021/08/17 06:52:08;;;;;;;15.05;6.00;;;;;;;17.07;76.73;101856.31;5001371;28;20038;-83
2021/08/17 06:54:33;;;;;;;15.15;6.80;;;;;;;16.92;76.92;101865.06;5000226;28;20384;-87
2021/08/17 06:56:59;;;;;;;12.90;6.65;;;;;;;16.74;77.65;101867.56;4995830;28;20507;-83
2021/08/17 06:59:25;;;;;;;20.63;6.75;;;;;;;16.53;79.15;101871.84;4999581;28;20058;-85
2021/08/17 07:01:50;;;;;;;14.38;6.38;;;;;;;16.43;78.90;101852.28;4994560;28;20030;-82
2021/08/17 07:04:36;;;;;;;15.50;6.47;;;;;;;16.29;78.29;101843.28;5007647;28;20436;-86
2021/08/17 07:07:01;;;;;;;14.50;6.28;;;;;;;16.31;79.02;101837.13;4999363;28;20029;-80
2021/08/17 07:09:27;;;;;;;18.80;6.78;;;;;;;16.34;78.66;101825.63;5000060;28;20030;-85
2021/08/17 07:11:52;;;;;;;17.60;5.70;;;;;;;16.41;78.53;101829.22;5005925;28;20026;-82
2021/08/17 07:14:23;;;;;;;15.10;5.93;;;;;;;16.34;77.38;101826.50;4996812;28;20481;-77
2021/08/17 07:16:48;;;;;;;17.98;5.25;;;;;;;16.45;76.95;101815.09;5004607;28;20074;-84
2021/08/17 07:19:14;;;;;;;13.90;5.18;;;;;;;16.50;76.31;101827.53;4996494;28;20572;-88
2021/08/17 07:21:39;;;;;;;15.65;5.88;;;;;;;16.52;75.56;101823.13;5000868;28;20022;-77
2021/08/17 07:24:08;;;;;;;12.77;5.38;;;;;;;16.58;75.02;101824.94;5000620;28;20018;-89
2021/08/17 07:27:18;;;;;;;14.10;5.22;;;;;;;16.61;75.70;101818.75;5000742;28;20041;-84
2021/08/17 07:29:47;;;;;;;19.13;6.00;;;;;;;16.61;74.90;101819.63;5000348;28;20033;-86
2021/08/17 07:32:13;;;;;;;16.58;6.28;;;;;;;16.64;75.68;101834.72;4995590;28;20038;-84
2021/08/17 07:34:58;;;;;;;14.40;5.03;;;;;;;16.70;74.93;101834.78;5002776;28;20030;-83
2021/08/17 07:37:24;;;;;;;13.60;5.28;;;;;;;16.82;74.62;101840.16;5005819;28;20022;-81
2021/08/17 07:39:52;;;;;;;11.45;5.85;;;;;;;16.92;74.15;101845.59;4995309;28;20494;-81
2021/08/17 07:42:17;;;;;;;11.60;4.90;;;;;;;17.04;72.98;101835.03;4994312;28;20042;-86
2021/08/17 07:44:43;;;;;;;14.38;5.18;;;;;;;17.21;73.14;101834.22;5001737;28;20045;-87
2021/08/17 07:47:08;;;;;;;16.27;5.35;;;;;;;17.18;70.73;101820.00;5002342;28;20045;-83
2021/08/17 07:49:34;;;;;;;12.35;5.00;;;;;;;17.17;69.59;101822.66;5002227;28;20026;-80
2021/08/17 07:52:45;;;;;;;9.20;3.92;;;;;;;17.08;70.20;101823.53;4998332;28;20397;-79
2021/08/17 07:55:19;;;;;;;11.93;3.80;;;;;;;17.11;69.00;101828.84;5002071;28;20036;-79
2021/08/17 07:58:16;;;;;;;9.02;4.60;;;;;;;17.13;70.29;101831.50;4997158;28;20022;-83
2021/08/17 08:00:42;;;;;;;9.07;3.88;;;;;;;17.16;70.32;101829.75;5006484;28;20038;-86
2021/08/17 08:03:07;;;;;;;9.57;4.22;;;;;;;16.98;71.74;101846.53;4980546;28;20064;-76
2021/08/17 08:05:33;;;;;;;9.35;4.18;;;;;;;16.88;71.44;101849.94;5008861;28;20071;-83
2021/08/17 08:07:58;;;;;;;8.07;3.92;;;;;;;16.78;72.38;101850.75;4984440;28;20025;-78
2021/08/17 08:10:24;;;;;;;11.93;4.45;;;;;;;16.75;73.44;101842.78;5002963;28;20479;-85
2021/08/17 08:12:54;;;;;;;14.38;4.82;;;;;;;16.65;72.75;101841.81;4996018;28;20065;-83
2021/08/17 08:15:25;;;;;;;10.77;4.30;;;;;;;16.61;72.29;101837.34;4993846;28;20063;-80
2021/08/17 08:17:51;;;;;;;12.70;4.07;;;;;;;16.37;72.70;101836.28;4994431;28;20026;-81
2021/08/17 08:20:20;;;;;;;11.35;4.40;;;;;;;16.45;73.32;101825.72;4995861;28;20034;-81
2021/08/17 08:22:56;;;;;;;11.50;4.50;;;;;;;16.38;73.05;101827.44;4999468;28;20069;-79
2021/08/17 08:25:25;;;;;;;12.20;3.85;;;;;;;16.34;72.08;101836.25;5014892;28;20095;-79
2021/08/17 08:28:10;;;;;;;9.93;3.88;;;;;;;16.26;72.51;101856.53;5002377;28;20030;-80
2021/08/17 08:30:49;;;;;;;16.60;4.55;;;;;;;16.24;71.32;101860.97;4995146;28;20141;-82
2021/08/17 08:33:15;;;;;;;7.72;4.00;;;;;;;16.28;70.68;101858.34;5009982;28;20045;-82
2021/08/17 08:36:00;;;;;;;15.45;4.32;;;;;;;16.33;71.16;101866.34;4994391;28;20034;-85
2021/08/17 08:38:29;;;;;;;12.32;4.40;;;;;;;16.44;71.61;101867.34;5000408;28;20437;-80
2021/08/17 08:40:54;;;;;;;8.70;3.75;;;;;;;16.46;71.46;101865.56;4995041;28;20048;-85
2021/08/17 08:43:21;;;;;;;8.82;4.05;;;;;;;16.55;71.57;101869.19;4986693;28;20113;-87
2021/08/17 08:45:48;;;;;;;17.42;4.47;;;;;;;16.60;71.71;101868.34;5006263;28;20033;-81
2021/08/17 08:48:20;;;;;;;9.45;3.88;;;;;;;16.48;71.82;101866.50;4996351;28;21541;-88
2021/08/17 08:50:49;;;;;;;6.68;3.60;;;;;;;16.37;71.59;101877.88;5001475;28;20073;-82
2021/08/17 08:53:16;;;;;;;6.53;3.30;;;;;;;16.31;71.76;101868.97;5009726;28;20030;-86
2021/08/17 08:55:44;;;;;;;11.77;3.88;;;;;;;16.26;71.69;101876.00;5000536;28;20033;-86
2021/08/17 08:58:10;;;;;;;14.77;3.58;;;;;;;16.27;72.98;101876.91;5002504;28;20046;-82
2021/08/17 09:00:36;;;;;;;4.68;3.15;;;;;;;16.22;73.24;101878.63;5000457;28;20038;-83
2021/08/17 09:03:01;;;;;;;8.15;3.20;;;;;;;16.23;73.03;101877.78;5009016;28;20013;-82
2021/08/17 09:05:30;;;;;;;12.23;3.42;;;;;;;16.10;72.96;101863.47;5012405;28;20029;-90
2021/08/17 09:08:19;;;;;;;10.80;3.83;;;;;;;16.05;73.36;101847.50;5000753;28;20096;-87
2021/08/17 09:10:47;;;;;;;8.45;3.70;;;;;;;16.01;73.18;101858.97;4998342;28;20046;-83
2021/08/17 09:13:35;;;;;;;8.85;3.55;;;;;;;16.02;73.42;101847.47;5006856;28;20074;-82
2021/08/17 09:16:21;;;;;;;9.00;3.33;;;;;;;16.01;73.55;101848.34;5004325;28;20038;-82
2021/08/17 09:19:27;;;;;;;8.73;4.72;;;;;;;16.00;74.03;101841.25;5002592;28;20030;-80
2021/08/17 09:21:54;;;;;;;11.73;3.75;;;;;;;16.02;73.47;101851.00;4988934;28;20034;-85
2021/08/17 09:24:26;;;;;;;7.43;2.83;;;;;;;16.06;73.68;101843.97;5010792;28;20021;-82
2021/08/17 09:26:52;;;;;;;11.38;3.88;;;;;;;16.12;74.57;101846.69;5002355;28;20026;-82
2021/08/17 09:29:32;;;;;;;9.13;3.53;;;;;;;16.21;73.49;101844.97;5009077;28;20030;-78
2021/08/17 09:32:18;;;;;;;9.68;3.42;;;;;;;16.17;73.10;101850.28;4994724;28;20128;-78
2021/08/17 09:34:49;;;;;;;5.93;2.90;;;;;;;16.23;73.29;101852.09;4995371;28;20034;-88
2021/08/17 09:37:17;;;;;;;8.57;3.45;;;;;;;16.15;73.81;101846.69;5003317;28;20156;-78
2021/08/17 09:39:48;;;;;;;12.27;3.20;;;;;;;16.02;73.75;101842.16;5002140;28;20049;-81
2021/08/17 09:42:44;;;;;;;7.68;2.53;;;;;;;15.90;73.58;101845.56;4995055;28;20045;-85
2021/08/17 09:45:18;;;;;;;6.90;2.95;;;;;;;15.87;73.40;101847.31;5000412;28;20030;-81
2021/08/17 09:48:01;;;;;;;5.95;2.75;;;;;;;15.80;74.27;101849.91;4996396;28;20065;-84
2021/08/17 09:50:49;;;;;;;8.17;2.83;;;;;;;15.69;75.78;101867.41;4996204;28;20505;-84
2021/08/17 09:53:36;;;;;;;5.05;2.60;;;;;;;15.61;76.56;101870.00;5015586;28;20285;-83
2021/08/17 09:56:03;;;;;;;4.05;2.75;;;;;;;15.55;78.58;101871.69;5006596;28;20039;-84
2021/08/17 09:58:51;;;;;;;8.57;2.85;;;;;;;15.37;80.54;101854.66;5000912;28;20084;-82
2021/08/17 10:01:17;;;;;;;6.30;3.22;;;;;;;15.32;82.03;101854.59;4988023;28;20068;-83
2021/08/17 10:03:45;;;;;;;7.10;3.42;;;;;;;15.23;83.32;101851.81;5001796;28;20016;-85
2021/08/17 10:06:11;;;;;;;9.15;3.83;;;;;;;15.23;84.19;101850.91;5019818;28;20030;-81
2021/08/17 10:08:57;;;;;;;8.30;3.40;;;;;;;15.18;85.38;101853.53;5008298;28;20038;-85
2021/08/17 10:11:25;;;;;;;5.45;3.30;;;;;;;15.20;85.99;101845.59;5006069;28;20030;-80
2021/08/17 10:13:50;;;;;;;6.97;3.55;;;;;;;15.17;87.32;101847.31;5008242;28;20059;-85
2021/08/17 10:16:36;;;;;;;4.97;3.17;;;;;;;15.21;87.22;101857.97;5003215;28;20540;-81
2021/08/17 10:19:23;;;;;;;9.05;3.88;;;;;;;15.18;87.63;101859.69;5005194;28;20042;-85
2021/08/17 10:21:51;;;;;;;5.65;3.55;;;;;;;15.13;87.81;101853.44;5005640;28;20019;-77
2021/08/17 10:24:27;;;;;;;5.70;3.92;;;;;;;15.09;88.84;101843.66;4988028;28;20068;-86
2021/08/17 10:27:22;;;;;;;9.88;4.15;;;;;;;15.03;90.21;101848.91;4996865;28;20028;-78
2021/08/17 10:30:10;;;;;;;7.05;4.13;;;;;;;15.11;90.99;101852.53;4995020;28;20034;-78
2021/08/17 10:32:35;;;;;;;9.13;4.88;;;;;;;15.14;90.47;101847.28;5003446;28;20441;-80
2021/08/17 10:35:00;;;;;;;8.40;4.72;;;;;;;15.17;91.02;101841.13;5010711;28;20025;-84
2021/08/17 10:37:26;;;;;;;8.75;4.68;;;;;;;15.27;90.79;101844.78;5001625;28;20023;-79
2021/08/17 10:39:51;;;;;;;12.65;5.10;;;;;;;15.23;90.39;101842.97;5005489;28;20074;-78
2021/08/17 10:42:26;;;;;;;12.43;5.80;;;;;;;15.13;91.18;101853.44;5009597;28;20030;-81
2021/08/17 10:44:53;;;;;;;10.60;5.15;;;;;;;15.03;91.24;101854.19;5007185;28;20022;-84
2021/08/17 10:47:52;;;;;;;9.65;5.43;;;;;;;14.85;91.80;101852.16;5013830;28;20041;-77
2021/08/17 10:50:46;;;;;;;9.93;5.22;;;;;;;14.80;92.72;101851.22;5002005;28;20062;-80
2021/08/17 10:53:36;;;;;;;7.95;4.90;;;;;;;14.78;92.58;101843.22;5021327;28;20033;-83
2021/08/17 10:56:29;;;;;;;9.43;4.78;;;;;;;14.83;92.20;101841.53;5004518;28;20044;-80
2021/08/17 10:59:15;;;;;;;9.97;4.97;;;;;;;14.91;93.00;101848.72;4995679;28;20081;-84
2021/08/17 11:01:42;;;;;;;7.15;3.50;;;;;;;14.89;91.06;101842.50;4999225;28;20042;-79
2021/08/17 11:04:15;;;;;;;8.80;4.80;;;;;;;14.94;92.38;101848.75;5000960;28;20112;-78
2021/08/17 11:06:51;;;;;;;8.45;4.20;;;;;;;15.01;92.08;101847.97;4996520;28;20034;-82
2021/08/17 11:09:19;;;;;;;11.38;4.53;;;;;;;14.97;92.38;101848.78;5001211;28;20125;-80
2021/08/17 11:11:53;;;;;;;10.63;4.40;;;;;;;14.97;92.50;101844.38;5001549;28;20033;-82
2021/08/17 11:14:40;;;;;;;8.38;5.25;;;;;;;14.99;93.02;101841.78;5001276;28;20034;-84
2021/08/17 11:17:30;;;;;;;13.20;5.57;;;;;;;15.04;93.78;101842.69;4993758;28;20046;-79
2021/08/17 11:19:56;;;;;;;8.85;5.28;;;;;;;15.02;93.48;101841.81;4982653;28;20025;-81
2021/08/17 11:22:41;;;;;;;16.50;5.40;;;;;;;14.88;93.19;101843.34;4989938;28;20099;-85
2021/08/17 11:25:09;;;;;;;7.93;5.00;;;;;;;14.90;93.95;101836.34;4995840;28;20030;-79
2021/08/17 11:27:57;;;;;;;6.85;4.45;;;;;;;14.87;93.75;101839.81;4994242;28;20049;-84
2021/08/17 11:30:50;;;;;;;9.90;4.57;;;;;;;14.86;93.94;101834.50;4990881;28;20049;-82
2021/08/17 11:33:48;;;;;;;16.08;6.45;;;;;;;14.87;94.75;101838.91;5002163;28;20084;-85
2021/08/17 11:36:39;;;;;;;8.75;4.85;;;;;;;14.91;95.45;101839.00;4998772;28;20416;-86
2021/08/17 11:39:30;;;;;;;10.02;4.80;;;;;;;14.96;95.28;101841.69;5003474;28;20034;-83
2021/08/17 11:45:12;;;;;;;8.98;3.38;;;;;;;14.95;94.40;101832.00;4931150;28;20035;-83
2021/08/17 11:47:52;;;;;;;7.75;3.53;;;;;;;14.97;94.00;101833.78;4994535;28;20049;-84
2021/08/17 11:53:49;;;;;;;7.57;3.30;;;;;;;15.09;93.89;101826.88;5000363;28;20549;-83
2021/08/17 11:56:58;;;;;;;9.63;3.10;;;;;;;15.14;93.93;101817.25;4990794;28;20535;-86
2021/08/17 12:00:02;;;;;;;8.27;3.40;;;;;;;15.25;93.91;101817.38;5001219;28;20034;-82
2021/08/17 12:03:34;;;;;;;;;;;;;;;15.22;92.90;101817.31;4995316;28;20123;-88
2021/08/17 12:05:59;;;;;;;8.35;3.20;;;;;;;15.16;92.27;101802.22;4992286;28;19914;-86
2021/08/17 12:08:56;;;;;;;;;;;;;;;;;;;;;
2021/08/17 12:11:32;;;;;;;6.05;3.08;;;;;;;15.20;93.31;101801.38;4988853;28;20187;-83
2021/08/17 12:14:03;;;;;;;5.03;3.17;;;;;;;15.30;94.11;101805.03;4994844;28;20494;-84
2021/08/17 12:16:51;;;;;;;6.43;2.47;;;;;;;15.34;92.91;101801.56;5006858;28;20042;-81
2021/08/17 12:19:56;;;;;;;;;;;;;;;;;;;;;
2021/08/17 12:22:36;;;;;;;4.93;2.20;;;;;;;15.32;92.59;101798.00;4996000;28;20512;-85
2021/08/17 12:25:03;;;;;;;7.53;3.10;;;;;;;15.17;92.71;101798.72;5006205;28;20392;-85
2021/08/17 12:27:31;;;;;;;6.32;3.33;;;;;;;15.09;93.54;101803.91;5000427;28;20029;-81
2021/08/17 12:29:57;;;;;;;6.32;2.97;;;;;;;15.17;93.90;101804.00;4996297;28;20034;-83
2021/08/17 12:33:03;;;;;;;9.07;2.97;;;;;;;15.17;92.91;101799.59;5009861;28;20041;-83
2021/08/17 12:35:36;;;;;;;4.13;2.53;;;;;;;15.23;93.16;101784.63;4999548;28;20045;-84